Mulberry, Florida
Current Conditions -  °F | °C
As of 7:53 PM on Friday 24 Oct 2014 (Local Time) from KLAL Reporting Station
Few Clouds Few Clouds  
Wind Chill: 70°   Ceiling: Unl
Heat Index: 70°   Visibility: 15mi
Dew Point: 57°   Wind: 6mph
Humidity: 64%   Direction: 60°ENE
Pressure: 29.93"   Gusts: NA
Location:  27.9°N, 81.97°W
Report Text: KLAL 242353Z 06005KT 15SM FEW050 21/14 A2993
Loading
Personal Weather Stations






























Interactive Weather Map
Tropical Storm Tracking
New forecast layout! Learn more

10-Day Weather Forecast

Advertisements
Track Severe Weather on mobile